sensor_id;sensor_type;location;lat;lon;timestamp;temperature;humidity
48579;DHT22;34357;51.948;6.132;2023-09-19T00:02:19;15.40;86.80
48579;DHT22;34357;51.948;6.132;2023-09-19T00:04:45;15.40;86.80
48579;DHT22;34357;51.948;6.132;2023-09-19T00:07:11;15.40;86.90
48579;DHT22;34357;51.948;6.132;2023-09-19T00:09:38;15.50;86.80
48579;DHT22;34357;51.948;6.132;2023-09-19T00:12:05;15.50;86.70
48579;DHT22;34357;51.948;6.132;2023-09-19T00:14:31;15.50;86.90
48579;DHT22;34357;51.948;6.132;2023-09-19T00:17:00;15.60;87.00
48579;DHT22;34357;51.948;6.132;2023-09-19T00:19:26;15.60;86.90
48579;DHT22;34357;51.948;6.132;2023-09-19T00:21:52;15.50;87.30
48579;DHT22;34357;51.948;6.132;2023-09-19T00:24:18;15.60;87.60
48579;DHT22;34357;51.948;6.132;2023-09-19T00:26:44;15.50;87.80
48579;DHT22;34357;51.948;6.132;2023-09-19T00:29:13;15.40;87.70
48579;DHT22;34357;51.948;6.132;2023-09-19T00:31:45;15.40;87.40
48579;DHT22;34357;51.948;6.132;2023-09-19T00:34:10;15.40;87.10
48579;DHT22;34357;51.948;6.132;2023-09-19T00:36:37;15.40;87.30
48579;DHT22;34357;51.948;6.132;2023-09-19T00:39:06;15.40;87.30
48579;DHT22;34357;51.948;6.132;2023-09-19T00:41:34;15.40;87.30
48579;DHT22;34357;51.948;6.132;2023-09-19T00:44:02;15.30;87.40
48579;DHT22;34357;51.948;6.132;2023-09-19T00:46:29;15.30;87.30
48579;DHT22;34357;51.948;6.132;2023-09-19T00:48:56;15.40;87.50
48579;DHT22;34357;51.948;6.132;2023-09-19T00:51:23;15.30;87.10
48579;DHT22;34357;51.948;6.132;2023-09-19T00:53:52;15.40;87.10
48579;DHT22;34357;51.948;6.132;2023-09-19T00:56:18;15.40;87.20
48579;DHT22;34357;51.948;6.132;2023-09-19T00:58:47;15.30;87.10
48579;DHT22;34357;51.948;6.132;2023-09-19T01:01:13;15.30;87.00
48579;DHT22;34357;51.948;6.132;2023-09-19T01:03:44;15.30;86.90
48579;DHT22;34357;51.948;6.132;2023-09-19T01:06:11;15.30;87.10
48579;DHT22;34357;51.948;6.132;2023-09-19T01:08:38;15.30;87.20
48579;DHT22;34357;51.948;6.132;2023-09-19T01:11:15;15.20;87.40
48579;DHT22;34357;51.948;6.132;2023-09-19T01:13:58;15.30;87.40
48579;DHT22;34357;51.948;6.132;2023-09-19T01:30:21;15.10;87.90
48579;DHT22;34357;51.948;6.132;2023-09-19T01:32:50;15.00;88.00
48579;DHT22;34357;51.948;6.132;2023-09-19T01:35:18;15.00;87.60
48579;DHT22;34357;51.948;6.132;2023-09-19T01:37:44;15.00;87.50
48579;DHT22;34357;51.948;6.132;2023-09-19T01:40:12;15.00;87.20
48579;DHT22;34357;51.948;6.132;2023-09-19T01:42:58;14.90;87.40
48579;DHT22;34357;51.948;6.132;2023-09-19T01:51:09;14.90;87.20
48579;DHT22;34357;51.948;6.132;2023-09-19T01:54:08;14.90;86.70
48579;DHT22;34357;51.948;6.132;2023-09-19T01:59:26;14.90;87.30
48579;DHT22;34357;51.948;6.132;2023-09-19T02:01:54;14.90;87.00
48579;DHT22;34357;51.948;6.132;2023-09-19T02:04:20;14.90;87.10
48579;DHT22;34357;51.948;6.132;2023-09-19T02:06:46;14.90;87.00
48579;DHT22;34357;51.948;6.132;2023-09-19T02:09:15;14.90;86.70
48579;DHT22;34357;51.948;6.132;2023-09-19T02:11:41;14.90;86.80
48579;DHT22;34357;51.948;6.132;2023-09-19T02:14:08;14.80;86.50
48579;DHT22;34357;51.948;6.132;2023-09-19T02:16:34;14.80;86.40
48579;DHT22;34357;51.948;6.132;2023-09-19T02:19:00;14.80;86.50
48579;DHT22;34357;51.948;6.132;2023-09-19T02:21:26;14.90;86.50
48579;DHT22;34357;51.948;6.132;2023-09-19T02:23:56;14.80;86.20
48579;DHT22;34357;51.948;6.132;2023-09-19T02:26:21;14.90;85.50
48579;DHT22;34357;51.948;6.132;2023-09-19T02:28:50;14.80;85.50
48579;DHT22;34357;51.948;6.132;2023-09-19T02:31:15;14.80;85.50
48579;DHT22;34357;51.948;6.132;2023-09-19T02:33:42;14.80;85.30
48579;DHT22;34357;51.948;6.132;2023-09-19T02:36:09;14.70;85.40
48579;DHT22;34357;51.948;6.132;2023-09-19T02:38:34;14.60;84.90
48579;DHT22;34357;51.948;6.132;2023-09-19T02:41:00;14.60;85.20
48579;DHT22;34357;51.948;6.132;2023-09-19T02:43:27;14.50;85.20
48579;DHT22;34357;51.948;6.132;2023-09-19T02:45:53;14.50;85.40
48579;DHT22;34357;51.948;6.132;2023-09-19T02:48:19;14.50;85.30
48579;DHT22;34357;51.948;6.132;2023-09-19T02:50:46;14.40;85.40
48579;DHT22;34357;51.948;6.132;2023-09-19T02:53:14;14.40;85.20
48579;DHT22;34357;51.948;6.132;2023-09-19T02:55:40;14.40;85.30
48579;DHT22;34357;51.948;6.132;2023-09-19T02:58:07;14.40;84.40
48579;DHT22;34357;51.948;6.132;2023-09-19T03:00:41;14.40;84.70
48579;DHT22;34357;51.948;6.132;2023-09-19T03:03:08;14.20;84.50
48579;DHT22;34357;51.948;6.132;2023-09-19T03:05:34;14.30;84.20
48579;DHT22;34357;51.948;6.132;2023-09-19T03:08:00;14.20;84.50
48579;DHT22;34357;51.948;6.132;2023-09-19T03:10:27;14.20;84.10
48579;DHT22;34357;51.948;6.132;2023-09-19T03:12:54;14.20;84.30
48579;DHT22;34357;51.948;6.132;2023-09-19T03:15:20;14.10;84.30
48579;DHT22;34357;51.948;6.132;2023-09-19T03:17:49;14.00;84.50
48579;DHT22;34357;51.948;6.132;2023-09-19T03:20:19;14.00;84.80
48579;DHT22;34357;51.948;6.132;2023-09-19T03:22:47;14.00;84.20
48579;DHT22;34357;51.948;6.132;2023-09-19T03:25:14;14.00;84.10
48579;DHT22;34357;51.948;6.132;2023-09-19T03:27:43;13.90;84.20
48579;DHT22;34357;51.948;6.132;2023-09-19T03:30:09;13.90;84.20
48579;DHT22;34357;51.948;6.132;2023-09-19T03:32:48;13.90;84.30
48579;DHT22;34357;51.948;6.132;2023-09-19T03:35:16;13.80;84.30
48579;DHT22;34357;51.948;6.132;2023-09-19T03:37:43;13.80;84.70
48579;DHT22;34357;51.948;6.132;2023-09-19T03:40:10;13.70;84.70
48579;DHT22;34357;51.948;6.132;2023-09-19T03:42:42;13.70;84.60
48579;DHT22;34357;51.948;6.132;2023-09-19T03:45:11;13.70;84.50
48579;DHT22;34357;51.948;6.132;2023-09-19T03:47:39;13.70;84.00
48579;DHT22;34357;51.948;6.132;2023-09-19T03:50:07;13.60;83.90
48579;DHT22;34357;51.948;6.132;2023-09-19T03:52:34;13.70;83.60
48579;DHT22;34357;51.948;6.132;2023-09-19T03:55:00;13.60;83.50
48579;DHT22;34357;51.948;6.132;2023-09-19T03:57:28;13.60;83.60
48579;DHT22;34357;51.948;6.132;2023-09-19T03:59:54;13.60;83.60
48579;DHT22;34357;51.948;6.132;2023-09-19T04:02:21;13.60;83.90
48579;DHT22;34357;51.948;6.132;2023-09-19T04:04:51;13.50;83.90
48579;DHT22;34357;51.948;6.132;2023-09-19T04:07:17;13.50;83.80
48579;DHT22;34357;51.948;6.132;2023-09-19T04:09:45;13.50;84.10
48579;DHT22;34357;51.948;6.132;2023-09-19T04:12:11;13.40;84.00
48579;DHT22;34357;51.948;6.132;2023-09-19T04:14:37;13.50;84.10
48579;DHT22;34357;51.948;6.132;2023-09-19T04:17:04;13.40;84.00
48579;DHT22;34357;51.948;6.132;2023-09-19T04:19:31;13.40;84.00
48579;DHT22;34357;51.948;6.132;2023-09-19T04:21:57;13.40;84.00
48579;DHT22;34357;51.948;6.132;2023-09-19T04:24:23;13.40;83.70
48579;DHT22;34357;51.948;6.132;2023-09-19T04:26:48;13.40;83.50
48579;DHT22;34357;51.948;6.132;2023-09-19T04:29:14;13.40;83.30
48579;DHT22;34357;51.948;6.132;2023-09-19T04:31:40;13.40;83.30
48579;DHT22;34357;51.948;6.132;2023-09-19T04:34:06;13.40;82.90
48579;DHT22;34357;51.948;6.132;2023-09-19T04:36:33;13.40;83.30
48579;DHT22;34357;51.948;6.132;2023-09-19T04:38:59;13.40;83.30
48579;DHT22;34357;51.948;6.132;2023-09-19T04:41:24;13.40;82.90
48579;DHT22;34357;51.948;6.132;2023-09-19T04:43:50;13.40;82.70
48579;DHT22;34357;51.948;6.132;2023-09-19T04:46:16;13.40;82.70
48579;DHT22;34357;51.948;6.132;2023-09-19T04:48:43;13.40;82.80
48579;DHT22;34357;51.948;6.132;2023-09-19T04:51:09;13.50;82.80
48579;DHT22;34357;51.948;6.132;2023-09-19T04:53:36;13.40;83.00
48579;DHT22;34357;51.948;6.132;2023-09-19T04:56:02;13.50;82.80
48579;DHT22;34357;51.948;6.132;2023-09-19T04:58:29;13.50;82.60
48579;DHT22;34357;51.948;6.132;2023-09-19T05:00:55;13.60;81.90
48579;DHT22;34357;51.948;6.132;2023-09-19T05:03:21;13.60;82.00
48579;DHT22;34357;51.948;6.132;2023-09-19T05:05:48;13.60;81.80
48579;DHT22;34357;51.948;6.132;2023-09-19T05:08:14;13.70;81.50
48579;DHT22;34357;51.948;6.132;2023-09-19T05:10:40;13.60;81.40
48579;DHT22;34357;51.948;6.132;2023-09-19T05:13:06;13.60;81.80
48579;DHT22;34357;51.948;6.132;2023-09-19T05:15:36;13.60;81.60
48579;DHT22;34357;51.948;6.132;2023-09-19T05:18:02;13.70;81.60
48579;DHT22;34357;51.948;6.132;2023-09-19T05:20:28;13.70;81.70
48579;DHT22;34357;51.948;6.132;2023-09-19T05:23:04;13.70;81.60
48579;DHT22;34357;51.948;6.132;2023-09-19T05:25:36;13.70;82.00
48579;DHT22;34357;51.948;6.132;2023-09-19T05:28:09;13.60;82.30
48579;DHT22;34357;51.948;6.132;2023-09-19T05:30:37;13.60;82.70
48579;DHT22;34357;51.948;6.132;2023-09-19T05:33:07;13.60;82.20
48579;DHT22;34357;51.948;6.132;2023-09-19T05:35:33;13.60;82.50
48579;DHT22;34357;51.948;6.132;2023-09-19T05:37:59;13.60;82.20
48579;DHT22;34357;51.948;6.132;2023-09-19T05:40:25;13.60;82.70
48579;DHT22;34357;51.948;6.132;2023-09-19T05:42:51;13.60;82.40
48579;DHT22;34357;51.948;6.132;2023-09-19T05:45:17;13.70;82.30
48579;DHT22;34357;51.948;6.132;2023-09-19T05:47:52;13.70;82.40
48579;DHT22;34357;51.948;6.132;2023-09-19T05:50:21;13.70;82.50
48579;DHT22;34357;51.948;6.132;2023-09-19T05:52:53;13.70;82.70
48579;DHT22;34357;51.948;6.132;2023-09-19T05:55:19;13.70;82.80
48579;DHT22;34357;51.948;6.132;2023-09-19T05:57:53;13.70;82.90
48579;DHT22;34357;51.948;6.132;2023-09-19T06:00:20;13.70;83.20
48579;DHT22;34357;51.948;6.132;2023-09-19T06:02:55;13.70;83.20
48579;DHT22;34357;51.948;6.132;2023-09-19T06:05:23;13.70;83.30
48579;DHT22;34357;51.948;6.132;2023-09-19T06:07:48;13.70;83.50
48579;DHT22;34357;51.948;6.132;2023-09-19T06:10:15;13.80;83.50
48579;DHT22;34357;51.948;6.132;2023-09-19T06:12:43;13.70;83.60
48579;DHT22;34357;51.948;6.132;2023-09-19T06:15:12;13.80;83.60
48579;DHT22;34357;51.948;6.132;2023-09-19T06:17:52;13.70;83.80
48579;DHT22;34357;51.948;6.132;2023-09-19T06:20:22;13.80;84.00
48579;DHT22;34357;51.948;6.132;2023-09-19T06:22:48;13.80;83.60
48579;DHT22;34357;51.948;6.132;2023-09-19T06:25:15;13.90;83.50
48579;DHT22;34357;51.948;6.132;2023-09-19T06:27:53;13.90;83.80
48579;DHT22;34357;51.948;6.132;2023-09-19T06:30:21;13.90;83.40
48579;DHT22;34357;51.948;6.132;2023-09-19T06:32:48;14.00;83.60
48579;DHT22;34357;51.948;6.132;2023-09-19T06:35:15;14.00;83.30
48579;DHT22;34357;51.948;6.132;2023-09-19T06:37:42;14.00;83.30
48579;DHT22;34357;51.948;6.132;2023-09-19T06:40:09;14.00;83.30
48579;DHT22;34357;51.948;6.132;2023-09-19T06:42:41;14.00;83.60
48579;DHT22;34357;51.948;6.132;2023-09-19T06:45:07;14.10;83.50
48579;DHT22;34357;51.948;6.132;2023-09-19T06:47:34;14.20;83.70
48579;DHT22;34357;51.948;6.132;2023-09-19T06:50:00;14.20;83.60
48579;DHT22;34357;51.948;6.132;2023-09-19T06:52:28;14.30;83.50
48579;DHT22;34357;51.948;6.132;2023-09-19T06:54:53;14.20;83.60
48579;DHT22;34357;51.948;6.132;2023-09-19T06:57:19;14.40;83.40
48579;DHT22;34357;51.948;6.132;2023-09-19T06:59:45;14.40;83.70
48579;DHT22;34357;51.948;6.132;2023-09-19T07:02:11;14.40;83.60
48579;DHT22;34357;51.948;6.132;2023-09-19T07:04:39;14.50;83.40
48579;DHT22;34357;51.948;6.132;2023-09-19T07:07:04;14.60;83.40
48579;DHT22;34357;51.948;6.132;2023-09-19T07:09:30;14.70;83.00
48579;DHT22;34357;51.948;6.132;2023-09-19T07:11:57;14.80;83.10
48579;DHT22;34357;51.948;6.132;2023-09-19T07:14:22;14.80;82.90
48579;DHT22;34357;51.948;6.132;2023-09-19T07:16:48;14.80;83.00
48579;DHT22;34357;51.948;6.132;2023-09-19T07:19:15;14.80;82.80
48579;DHT22;34357;51.948;6.132;2023-09-19T07:21:40;14.90;82.90
48579;DHT22;34357;51.948;6.132;2023-09-19T07:24:07;14.90;82.90
48579;DHT22;34357;51.948;6.132;2023-09-19T07:26:33;14.90;83.10
48579;DHT22;34357;51.948;6.132;2023-09-19T07:28:59;14.90;82.60
48579;DHT22;34357;51.948;6.132;2023-09-19T07:31:27;15.00;82.70
48579;DHT22;34357;51.948;6.132;2023-09-19T07:33:54;15.10;82.60
48579;DHT22;34357;51.948;6.132;2023-09-19T07:36:19;15.10;82.00
48579;DHT22;34357;51.948;6.132;2023-09-19T07:38:45;15.20;82.20
48579;DHT22;34357;51.948;6.132;2023-09-19T07:41:11;15.30;82.30
48579;DHT22;34357;51.948;6.132;2023-09-19T07:43:37;15.30;82.10
48579;DHT22;34357;51.948;6.132;2023-09-19T07:46:06;15.30;81.30
48579;DHT22;34357;51.948;6.132;2023-09-19T07:48:35;15.40;81.60
48579;DHT22;34357;51.948;6.132;2023-09-19T07:51:08;15.60;81.20
48579;DHT22;34357;51.948;6.132;2023-09-19T07:53:35;15.60;81.00
48579;DHT22;34357;51.948;6.132;2023-09-19T07:56:08;15.60;81.20
48579;DHT22;34357;51.948;6.132;2023-09-19T07:58:34;15.70;80.60
48579;DHT22;34357;51.948;6.132;2023-09-19T08:01:07;15.80;80.40
48579;DHT22;34357;51.948;6.132;2023-09-19T08:03:37;15.80;80.50
48579;DHT22;34357;51.948;6.132;2023-09-19T08:06:09;15.90;80.60
48579;DHT22;34357;51.948;6.132;2023-09-19T08:08:37;15.90;80.90
48579;DHT22;34357;51.948;6.132;2023-09-19T08:11:04;15.90;81.00
48579;DHT22;34357;51.948;6.132;2023-09-19T08:13:41;16.00;80.30
48579;DHT22;34357;51.948;6.132;2023-09-19T08:16:13;16.10;79.90
48579;DHT22;34357;51.948;6.132;2023-09-19T08:18:40;16.20;80.20
48579;DHT22;34357;51.948;6.132;2023-09-19T08:21:07;16.20;79.30
48579;DHT22;34357;51.948;6.132;2023-09-19T08:23:36;16.30;79.30
48579;DHT22;34357;51.948;6.132;2023-09-19T08:26:02;16.30;79.60
48579;DHT22;34357;51.948;6.132;2023-09-19T08:28:33;16.30;79.50
48579;DHT22;34357;51.948;6.132;2023-09-19T08:31:04;16.50;79.60
48579;DHT22;34357;51.948;6.132;2023-09-19T08:33:33;16.50;79.00
48579;DHT22;34357;51.948;6.132;2023-09-19T08:35:59;16.70;78.90
48579;DHT22;34357;51.948;6.132;2023-09-19T08:38:25;16.70;77.90
48579;DHT22;34357;51.948;6.132;2023-09-19T08:40:58;16.70;78.10
48579;DHT22;34357;51.948;6.132;2023-09-19T08:43:25;16.90;78.30
48579;DHT22;34357;51.948;6.132;2023-09-19T08:45:58;16.90;77.70
48579;DHT22;34357;51.948;6.132;2023-09-19T08:48:29;17.00;78.20
48579;DHT22;34357;51.948;6.132;2023-09-19T08:51:12;17.00;77.40
48579;DHT22;34357;51.948;6.132;2023-09-19T08:53:47;17.10;77.40
48579;DHT22;34357;51.948;6.132;2023-09-19T08:56:17;17.10;77.10
48579;DHT22;34357;51.948;6.132;2023-09-19T08:58:51;17.30;76.80
48579;DHT22;34357;51.948;6.132;2023-09-19T09:01:19;17.50;76.00
48579;DHT22;34357;51.948;6.132;2023-09-19T09:03:53;17.40;76.60
48579;DHT22;34357;51.948;6.132;2023-09-19T09:06:20;17.40;76.20
48579;DHT22;34357;51.948;6.132;2023-09-19T09:08:46;17.40;76.60
48579;DHT22;34357;51.948;6.132;2023-09-19T09:11:13;17.50;75.80
48579;DHT22;34357;51.948;6.132;2023-09-19T09:13:40;17.50;76.30
48579;DHT22;34357;51.948;6.132;2023-09-19T09:16:07;17.60;76.50
48579;DHT22;34357;51.948;6.132;2023-09-19T09:18:34;17.80;75.60
48579;DHT22;34357;51.948;6.132;2023-09-19T09:20:59;17.90;75.50
48579;DHT22;34357;51.948;6.132;2023-09-19T09:23:27;17.90;75.30
48579;DHT22;34357;51.948;6.132;2023-09-19T09:25:56;18.00;74.10
48579;DHT22;34357;51.948;6.132;2023-09-19T09:28:26;18.00;74.60
48579;DHT22;34357;51.948;6.132;2023-09-19T09:30:53;18.20;73.40
48579;DHT22;34357;51.948;6.132;2023-09-19T09:33:19;18.20;73.10
48579;DHT22;34357;51.948;6.132;2023-09-19T09:35:53;18.50;72.60
48579;DHT22;34357;51.948;6.132;2023-09-19T09:38:20;18.30;71.60
48579;DHT22;34357;51.948;6.132;2023-09-19T09:40:50;18.10;72.40
48579;DHT22;34357;51.948;6.132;2023-09-19T09:43:34;18.50;71.90
48579;DHT22;34357;51.948;6.132;2023-09-19T09:46:16;18.30;71.40
48579;DHT22;34357;51.948;6.132;2023-09-19T09:49:02;18.40;71.90
48579;DHT22;34357;51.948;6.132;2023-09-19T09:51:49;18.70;70.40
48579;DHT22;34357;51.948;6.132;2023-09-19T09:54:26;18.60;69.70
48579;DHT22;34357;51.948;6.132;2023-09-19T09:57:03;18.80;69.20
48579;DHT22;34357;51.948;6.132;2023-09-19T09:59:56;18.70;69.10
48579;DHT22;34357;51.948;6.132;2023-09-19T10:02:40;18.80;68.00
48579;DHT22;34357;51.948;6.132;2023-09-19T10:07:50;19.00;69.80
48579;DHT22;34357;51.948;6.132;2023-09-19T10:10:34;19.30;68.30
48579;DHT22;34357;51.948;6.132;2023-09-19T10:13:08;19.20;67.70
48579;DHT22;34357;51.948;6.132;2023-09-19T10:15:38;19.20;68.10
48579;DHT22;34357;51.948;6.132;2023-09-19T10:18:11;19.10;67.40
48579;DHT22;34357;51.948;6.132;2023-09-19T10:20:46;18.80;68.00
48579;DHT22;34357;51.948;6.132;2023-09-19T10:23:15;18.90;69.60
48579;DHT22;34357;51.948;6.132;2023-09-19T10:25:48;19.20;67.90
48579;DHT22;34357;51.948;6.132;2023-09-19T10:28:16;19.10;67.50
48579;DHT22;34357;51.948;6.132;2023-09-19T10:30:44;19.30;68.30
48579;DHT22;34357;51.948;6.132;2023-09-19T10:33:15;19.20;66.00
48579;DHT22;34357;51.948;6.132;2023-09-19T10:35:45;19.20;67.30
48579;DHT22;34357;51.948;6.132;2023-09-19T10:38:13;19.20;67.60
48579;DHT22;34357;51.948;6.132;2023-09-19T10:40:40;19.20;67.20
48579;DHT22;34357;51.948;6.132;2023-09-19T10:43:12;19.00;67.10
48579;DHT22;34357;51.948;6.132;2023-09-19T10:45:39;19.20;67.60
48579;DHT22;34357;51.948;6.132;2023-09-19T10:48:06;19.30;67.10
48579;DHT22;34357;51.948;6.132;2023-09-19T10:51:10;19.30;66.30
48579;DHT22;34357;51.948;6.132;2023-09-19T10:53:49;19.60;65.60
48579;DHT22;34357;51.948;6.132;2023-09-19T10:56:52;19.70;64.50
48579;DHT22;34357;51.948;6.132;2023-09-19T10:59:20;19.90;64.80
48579;DHT22;34357;51.948;6.132;2023-09-19T11:01:54;20.00;64.00
48579;DHT22;34357;51.948;6.132;2023-09-19T11:04:34;20.30;65.30
48579;DHT22;34357;51.948;6.132;2023-09-19T11:07:09;20.40;61.90
48579;DHT22;34357;51.948;6.132;2023-09-19T11:21:38;19.50;66.40
48579;DHT22;34357;51.948;6.132;2023-09-19T11:26:42;19.40;66.60
48579;DHT22;34357;51.948;6.132;2023-09-19T11:29:30;19.60;66.10
48579;DHT22;34357;51.948;6.132;2023-09-19T11:31:57;19.80;64.20
48579;DHT22;34357;51.948;6.132;2023-09-19T11:34:44;19.80;64.20
48579;DHT22;34357;51.948;6.132;2023-09-19T11:39:40;19.80;65.40
48579;DHT22;34357;51.948;6.132;2023-09-19T11:42:48;19.90;64.30
48579;DHT22;34357;51.948;6.132;2023-09-19T11:48:18;20.50;64.90
48579;DHT22;34357;51.948;6.132;2023-09-19T11:50:45;20.50;63.50
48579;DHT22;34357;51.948;6.132;2023-09-19T11:53:13;20.10;63.30
48579;DHT22;34357;51.948;6.132;2023-09-19T11:55:42;20.10;63.90
48579;DHT22;34357;51.948;6.132;2023-09-19T11:58:09;20.40;63.70
48579;DHT22;34357;51.948;6.132;2023-09-19T12:00:38;20.30;62.50
48579;DHT22;34357;51.948;6.132;2023-09-19T12:03:11;20.50;64.10
48579;DHT22;34357;51.948;6.132;2023-09-19T12:05:37;20.40;62.60
48579;DHT22;34357;51.948;6.132;2023-09-19T12:08:09;20.40;63.00
48579;DHT22;34357;51.948;6.132;2023-09-19T12:10:50;20.50;63.50
48579;DHT22;34357;51.948;6.132;2023-09-19T12:13:17;20.50;62.60
48579;DHT22;34357;51.948;6.132;2023-09-19T12:15:44;20.50;61.30
48579;DHT22;34357;51.948;6.132;2023-09-19T12:18:29;20.50;62.90
48579;DHT22;34357;51.948;6.132;2023-09-19T12:20:55;20.30;61.80
48579;DHT22;34357;51.948;6.132;2023-09-19T12:23:23;20.10;62.20
48579;DHT22;34357;51.948;6.132;2023-09-19T12:25:49;20.10;62.30
48579;DHT22;34357;51.948;6.132;2023-09-19T12:28:18;20.10;63.00
48579;DHT22;34357;51.948;6.132;2023-09-19T12:30:44;20.20;62.40
48579;DHT22;34357;51.948;6.132;2023-09-19T12:33:20;20.40;61.00
48579;DHT22;34357;51.948;6.132;2023-09-19T12:35:50;20.60;62.40
48579;DHT22;34357;51.948;6.132;2023-09-19T12:38:28;20.80;60.90
48579;DHT22;34357;51.948;6.132;2023-09-19T12:40:57;20.90;59.70
48579;DHT22;34357;51.948;6.132;2023-09-19T12:43:26;21.20;59.50
48579;DHT22;34357;51.948;6.132;2023-09-19T12:45:53;21.20;60.10
48579;DHT22;34357;51.948;6.132;2023-09-19T12:53:32;20.40;61.10
48579;DHT22;34357;51.948;6.132;2023-09-19T12:56:00;20.30;60.40
48579;DHT22;34357;51.948;6.132;2023-09-19T12:58:26;20.20;61.30
48579;DHT22;34357;51.948;6.132;2023-09-19T13:00:52;20.10;62.20
48579;DHT22;34357;51.948;6.132;2023-09-19T13:05:55;19.90;61.90
48579;DHT22;34357;51.948;6.132;2023-09-19T13:11:17;19.80;62.60
48579;DHT22;34357;51.948;6.132;2023-09-19T13:25:29;19.90;63.10
48579;DHT22;34357;51.948;6.132;2023-09-19T13:27:57;19.90;62.70
48579;DHT22;34357;51.948;6.132;2023-09-19T13:30:25;19.90;63.00
48579;DHT22;34357;51.948;6.132;2023-09-19T13:32:52;19.90;63.80
48579;DHT22;34357;51.948;6.132;2023-09-19T13:35:19;20.00;63.70
48579;DHT22;34357;51.948;6.132;2023-09-19T13:37:46;20.20;63.40
48579;DHT22;34357;51.948;6.132;2023-09-19T13:40:15;20.20;62.30
48579;DHT22;34357;51.948;6.132;2023-09-19T13:42:41;20.00;63.70
48579;DHT22;34357;51.948;6.132;2023-09-19T13:45:08;20.40;62.90
48579;DHT22;34357;51.948;6.132;2023-09-19T13:47:38;20.70;62.20
48579;DHT22;34357;51.948;6.132;2023-09-19T13:50:05;20.50;63.00
48579;DHT22;34357;51.948;6.132;2023-09-19T13:52:31;20.40;61.80
48579;DHT22;34357;51.948;6.132;2023-09-19T13:54:58;20.30;62.50
48579;DHT22;34357;51.948;6.132;2023-09-19T13:57:24;20.40;63.30
48579;DHT22;34357;51.948;6.132;2023-09-19T13:59:51;20.30;64.20
48579;DHT22;34357;51.948;6.132;2023-09-19T14:02:17;20.10;62.60
48579;DHT22;34357;51.948;6.132;2023-09-19T14:04:48;19.90;64.00
48579;DHT22;34357;51.948;6.132;2023-09-19T14:07:15;19.80;63.10
48579;DHT22;34357;51.948;6.132;2023-09-19T14:09:41;19.90;64.40
48579;DHT22;34357;51.948;6.132;2023-09-19T14:12:07;20.10;64.30
48579;DHT22;34357;51.948;6.132;2023-09-19T14:14:32;20.40;64.00
48579;DHT22;34357;51.948;6.132;2023-09-19T14:16:58;20.50;64.00
48579;DHT22;34357;51.948;6.132;2023-09-19T14:19:29;20.50;64.20
48579;DHT22;34357;51.948;6.132;2023-09-19T14:21:54;20.40;63.70
48579;DHT22;34357;51.948;6.132;2023-09-19T14:24:23;20.60;64.30
48579;DHT22;34357;51.948;6.132;2023-09-19T14:26:49;20.50;64.80
48579;DHT22;34357;51.948;6.132;2023-09-19T14:29:15;20.50;64.70
48579;DHT22;34357;51.948;6.132;2023-09-19T14:31:41;20.50;64.00
48579;DHT22;34357;51.948;6.132;2023-09-19T14:34:07;20.60;64.60
48579;DHT22;34357;51.948;6.132;2023-09-19T14:36:37;20.70;64.00
48579;DHT22;34357;51.948;6.132;2023-09-19T14:39:04;20.70;64.80
48579;DHT22;34357;51.948;6.132;2023-09-19T14:41:30;20.70;63.40
48579;DHT22;34357;51.948;6.132;2023-09-19T14:43:57;20.50;64.80
48579;DHT22;34357;51.948;6.132;2023-09-19T14:46:23;20.30;63.80
48579;DHT22;34357;51.948;6.132;2023-09-19T14:48:51;20.20;64.80
48579;DHT22;34357;51.948;6.132;2023-09-19T14:51:17;20.00;65.00
48579;DHT22;34357;51.948;6.132;2023-09-19T14:53:44;20.00;66.70
48579;DHT22;34357;51.948;6.132;2023-09-19T14:56:11;20.00;65.30
48579;DHT22;34357;51.948;6.132;2023-09-19T14:58:37;20.10;65.40
48579;DHT22;34357;51.948;6.132;2023-09-19T15:01:08;20.00;64.10
48579;DHT22;34357;51.948;6.132;2023-09-19T15:03:36;20.00;64.90
48579;DHT22;34357;51.948;6.132;2023-09-19T15:06:10;19.90;64.70
48579;DHT22;34357;51.948;6.132;2023-09-19T15:08:38;19.90;65.20
48579;DHT22;34357;51.948;6.132;2023-09-19T15:11:07;19.80;65.40
48579;DHT22;34357;51.948;6.132;2023-09-19T15:13:34;19.70;65.80
48579;DHT22;34357;51.948;6.132;2023-09-19T15:16:07;19.70;66.20
48579;DHT22;34357;51.948;6.132;2023-09-19T15:18:35;19.70;66.10
48579;DHT22;34357;51.948;6.132;2023-09-19T15:21:06;19.60;66.40
48579;DHT22;34357;51.948;6.132;2023-09-19T15:23:33;19.60;66.90
48579;DHT22;34357;51.948;6.132;2023-09-19T15:26:03;19.60;66.10
48579;DHT22;34357;51.948;6.132;2023-09-19T15:28:29;19.50;66.50
48579;DHT22;34357;51.948;6.132;2023-09-19T15:31:07;19.50;67.20
48579;DHT22;34357;51.948;6.132;2023-09-19T15:33:33;19.40;67.10
48579;DHT22;34357;51.948;6.132;2023-09-19T15:36:09;19.40;66.70
48579;DHT22;34357;51.948;6.132;2023-09-19T15:41:19;19.30;67.60
48579;DHT22;34357;51.948;6.132;2023-09-19T15:43:46;19.20;67.80
48579;DHT22;34357;51.948;6.132;2023-09-19T15:46:12;19.20;68.00
48579;DHT22;34357;51.948;6.132;2023-09-19T15:48:39;19.20;68.30
48579;DHT22;34357;51.948;6.132;2023-09-19T15:51:05;19.20;68.50
48579;DHT22;34357;51.948;6.132;2023-09-19T15:53:43;19.20;68.50
48579;DHT22;34357;51.948;6.132;2023-09-19T15:56:10;19.20;68.40
48579;DHT22;34357;51.948;6.132;2023-09-19T15:58:38;19.10;68.60
48579;DHT22;34357;51.948;6.132;2023-09-19T16:01:08;19.10;69.10
48579;DHT22;34357;51.948;6.132;2023-09-19T16:03:37;19.00;69.50
48579;DHT22;34357;51.948;6.132;2023-09-19T16:06:11;19.10;69.10
48579;DHT22;34357;51.948;6.132;2023-09-19T16:08:45;19.00;69.50
48579;DHT22;34357;51.948;6.132;2023-09-19T16:11:12;19.00;69.10
48579;DHT22;34357;51.948;6.132;2023-09-19T16:13:39;19.00;69.50
48579;DHT22;34357;51.948;6.132;2023-09-19T16:16:08;19.00;69.30
48579;DHT22;34357;51.948;6.132;2023-09-19T16:18:47;19.00;69.70
48579;DHT22;34357;51.948;6.132;2023-09-19T16:21:14;19.00;69.60
48579;DHT22;34357;51.948;6.132;2023-09-19T16:23:40;19.00;69.80
48579;DHT22;34357;51.948;6.132;2023-09-19T16:26:07;19.00;69.50
48579;DHT22;34357;51.948;6.132;2023-09-19T16:28:35;19.00;69.90
48579;DHT22;34357;51.948;6.132;2023-09-19T16:31:02;18.90;69.90
48579;DHT22;34357;51.948;6.132;2023-09-19T16:33:29;18.90;69.40
48579;DHT22;34357;51.948;6.132;2023-09-19T16:35:55;18.90;70.00
48579;DHT22;34357;51.948;6.132;2023-09-19T16:38:22;18.90;70.20
48579;DHT22;34357;51.948;6.132;2023-09-19T16:40:58;18.90;70.20
48579;DHT22;34357;51.948;6.132;2023-09-19T16:43:25;18.90;69.80
48579;DHT22;34357;51.948;6.132;2023-09-19T16:45:59;18.90;70.10
48579;DHT22;34357;51.948;6.132;2023-09-19T16:48:26;18.90;70.20
48579;DHT22;34357;51.948;6.132;2023-09-19T16:50:53;18.90;70.10
48579;DHT22;34357;51.948;6.132;2023-09-19T16:53:19;18.90;70.30